Terminal Aerodrome Forecast
Issued by NWS Grand Forks, ND

Home | Current Version | Previous Version | Graphics & Text | Print | Product List | Glossary On
Versions: 1 2 3 4 5 6 7 8 9 10 11 12 13 14 15 16 17 18
734
FTUS43 KFGF 121534 AAA
TAFFAR
TAF AMD
KFAR 121534Z 1216/1312 18009KT P6SM BKN035
     FM121800 19008KT P6SM OVC060
     FM130700 25011KT P6SM OVC080
     FM131100 33023G34KT P6SM OVC015=

USA.gov is the U.S. government's official web portal to all federal, state and local government web resources and services.